createdAt,value
2022-08-16T00:02:21.394Z,1.98
2022-08-16T00:04:51.160Z,0.60
2022-08-16T00:07:19.202Z,1.40
2022-08-16T00:09:48.147Z,1.30
2022-08-16T00:12:17.948Z,1.15
2022-08-16T00:14:46.121Z,1.20
2022-08-16T00:17:18.528Z,1.25
2022-08-16T00:22:15.392Z,1.00
2022-08-16T00:24:44.839Z,1.88
2022-08-16T00:27:14.668Z,1.00
2022-08-16T00:29:42.404Z,1.13
2022-08-16T00:32:10.968Z,1.00
2022-08-16T00:34:44.551Z,1.23
2022-08-16T00:37:20.947Z,0.93
2022-08-16T00:39:58.151Z,1.13
2022-08-16T00:42:30.648Z,1.17
2022-08-16T00:45:10.533Z,1.10
2022-08-16T00:47:42.652Z,1.85
2022-08-16T00:50:17.662Z,1.55
2022-08-16T00:52:51.135Z,0.95
2022-08-16T00:55:22.552Z,1.35
2022-08-16T00:57:59.657Z,0.95
2022-08-16T01:00:29.676Z,0.70
2022-08-16T01:02:58.095Z,1.20
2022-08-16T01:05:26.148Z,1.20
2022-08-16T01:07:54.737Z,1.38
2022-08-16T01:10:31.967Z,1.40
2022-08-16T01:13:15.807Z,0.90
2022-08-16T01:15:46.273Z,1.30
2022-08-16T01:18:38.856Z,1.00
2022-08-16T01:21:08.031Z,0.98
2022-08-16T01:24:00.784Z,1.20
2022-08-16T01:26:34.535Z,0.93
2022-08-16T01:29:05.528Z,1.08
2022-08-16T01:31:42.683Z,1.05
2022-08-16T01:34:22.806Z,1.30
2022-08-16T01:37:00.161Z,1.10
2022-08-16T01:39:29.532Z,1.85
2022-08-16T01:41:59.029Z,0.85
2022-08-16T01:44:33.491Z,1.23
2022-08-16T01:47:06.150Z,1.45
2022-08-16T01:49:43.603Z,1.75
2022-08-16T01:52:29.909Z,1.08
2022-08-16T01:54:59.929Z,1.08
2022-08-16T01:57:28.341Z,0.95
2022-08-16T01:59:59.343Z,1.52
2022-08-16T02:02:28.653Z,1.13
2022-08-16T02:04:57.546Z,1.38
2022-08-16T02:07:25.624Z,1.67
2022-08-16T02:09:56.967Z,1.48
2022-08-16T02:12:49.559Z,1.67
2022-08-16T02:15:14.401Z,1.42
2022-08-16T02:17:42.005Z,1.50
2022-08-16T02:20:11.870Z,2.13
2022-08-16T02:22:39.696Z,1.17
2022-08-16T02:25:14.723Z,1.63
2022-08-16T02:27:43.629Z,1.40
2022-08-16T02:30:35.772Z,1.08
2022-08-16T02:33:04.288Z,1.48
2022-08-16T02:35:32.780Z,1.02
2022-08-16T02:38:01.797Z,1.58
2022-08-16T02:40:36.823Z,1.33
2022-08-16T02:43:04.831Z,1.27
2022-08-16T02:45:32.959Z,1.38
2022-08-16T02:48:30.278Z,1.23
2022-08-16T02:50:53.509Z,1.90
2022-08-16T02:53:32.714Z,1.50
2022-08-16T02:56:00.569Z,1.95
2022-08-16T02:58:30.160Z,1.02
2022-08-16T03:00:58.297Z,1.27
2022-08-16T03:03:27.005Z,2.50
2022-08-16T03:06:39.081Z,1.30
2022-08-16T03:09:03.222Z,1.88
2022-08-16T03:11:35.306Z,1.10
2022-08-16T03:16:39.079Z,1.33
2022-08-16T03:19:22.571Z,1.60
2022-08-16T03:21:51.811Z,1.67
2022-08-16T03:24:28.184Z,1.50
2022-08-16T03:27:01.777Z,1.27
2022-08-16T03:29:32.558Z,1.10
2022-08-16T03:32:01.765Z,1.10
2022-08-16T03:34:30.164Z,1.35
2022-08-16T03:36:58.072Z,1.45
2022-08-16T03:39:25.704Z,1.85
2022-08-16T03:42:00.112Z,1.50
2022-08-16T03:44:44.404Z,1.77
2022-08-16T03:47:18.672Z,1.30
2022-08-16T03:49:51.909Z,1.90
2022-08-16T03:52:23.923Z,1.20
2022-08-16T03:54:59.683Z,1.70
2022-08-16T03:57:31.410Z,2.00
2022-08-16T03:59:59.991Z,1.92
2022-08-16T04:02:31.667Z,1.55
2022-08-16T04:04:59.255Z,1.70
2022-08-16T04:07:26.861Z,1.80
2022-08-16T04:10:36.179Z,1.40
2022-08-16T04:13:04.055Z,1.65
2022-08-16T04:15:32.231Z,2.25
2022-08-16T04:18:04.863Z,1.70
2022-08-16T04:20:36.773Z,1.73
2022-08-16T04:23:04.782Z,1.90
2022-08-16T04:25:33.831Z,1.95
2022-08-16T04:28:52.171Z,1.83
2022-08-16T04:30:50.528Z,1.67
2022-08-16T04:33:18.460Z,1.73
2022-08-16T04:35:55.643Z,1.13
2022-08-16T04:38:24.382Z,1.67
2022-08-16T04:40:54.440Z,1.65
2022-08-16T04:43:22.461Z,2.80
2022-08-16T04:46:00.045Z,1.95
2022-08-16T04:48:32.880Z,1.42
2022-08-16T04:51:02.055Z,2.05
2022-08-16T04:53:41.731Z,3.17
2022-08-16T04:56:11.556Z,1.63
2022-08-16T04:58:46.141Z,1.70
2022-08-16T05:01:15.251Z,1.55
2022-08-16T05:03:59.898Z,2.00
2022-08-16T05:06:44.904Z,2.30
2022-08-16T05:09:13.036Z,1.73
2022-08-16T05:11:40.817Z,1.65
2022-08-16T05:14:08.372Z,1.80
2022-08-16T05:16:36.636Z,1.58
2022-08-16T05:19:05.536Z,2.70
2022-08-16T05:21:39.370Z,1.77
2022-08-16T05:24:09.133Z,2.40
2022-08-16T05:26:40.780Z,1.77
2022-08-16T05:29:15.200Z,1.35
2022-08-16T05:31:44.286Z,2.22
2022-08-16T05:34:19.602Z,2.05
2022-08-16T05:36:51.304Z,2.35
2022-08-16T05:39:20.698Z,2.47
2022-08-16T05:41:51.798Z,2.10
2022-08-16T05:44:23.260Z,1.90
2022-08-16T05:46:53.813Z,1.08
2022-08-16T05:49:23.326Z,1.38
2022-08-16T05:51:51.470Z,2.40
2022-08-16T05:54:24.764Z,2.22
2022-08-16T05:56:53.182Z,2.05
2022-08-16T05:59:22.139Z,2.05
2022-08-16T06:01:51.215Z,2.15
2022-08-16T06:04:34.986Z,2.33
2022-08-16T06:07:08.926Z,2.00
2022-08-16T06:09:52.640Z,1.63
2022-08-16T06:12:27.363Z,2.03
2022-08-16T06:14:59.800Z,1.90
2022-08-16T06:17:41.587Z,1.55
2022-08-16T06:20:11.566Z,1.33
2022-08-16T06:22:40.841Z,1.70
2022-08-16T06:25:12.997Z,2.00
2022-08-16T06:27:57.137Z,2.25
2022-08-16T06:30:28.931Z,1.92
2022-08-16T06:32:56.893Z,2.15
2022-08-16T06:35:25.008Z,2.25
2022-08-16T06:38:06.643Z,1.33
2022-08-16T06:40:54.193Z,2.17
2022-08-16T06:43:27.558Z,1.67
2022-08-16T06:45:55.598Z,2.00
2022-08-16T06:48:32.466Z,2.42
2022-08-16T06:51:02.524Z,1.58
2022-08-16T06:53:30.221Z,2.35
2022-08-16T06:56:14.738Z,1.85
2022-08-16T06:58:51.558Z,1.80
2022-08-16T07:01:23.035Z,1.75
2022-08-16T07:04:10.372Z,2.28
2022-08-16T07:06:43.132Z,1.77
2022-08-16T07:09:12.016Z,2.75
2022-08-16T07:11:47.863Z,2.30
2022-08-16T07:14:24.462Z,1.38
2022-08-16T07:16:53.744Z,2.00
2022-08-16T07:19:21.339Z,2.13
2022-08-16T07:21:59.562Z,2.20
2022-08-16T07:24:31.124Z,2.13
2022-08-16T07:27:00.497Z,1.65
2022-08-16T07:29:31.721Z,2.08
2022-08-16T07:32:00.798Z,1.85
2022-08-16T07:34:35.269Z,3.08
2022-08-16T07:37:08.309Z,2.22
2022-08-16T07:39:43.504Z,2.15
2022-08-16T07:42:20.082Z,2.13
2022-08-16T07:44:53.563Z,1.80
2022-08-16T07:47:24.585Z,1.60
2022-08-16T07:49:58.920Z,2.35
2022-08-16T07:52:29.939Z,1.88
2022-08-16T07:54:58.456Z,2.03
2022-08-16T07:57:26.325Z,2.33
2022-08-16T07:59:54.074Z,2.65
2022-08-16T08:02:27.528Z,1.42
2022-08-16T08:04:56.498Z,2.10
2022-08-16T08:07:28.112Z,2.15
2022-08-16T08:09:56.366Z,2.92
2022-08-16T08:12:31.886Z,2.13
2022-08-16T08:15:04.814Z,3.05
2022-08-16T08:17:42.187Z,2.22
2022-08-16T08:20:13.593Z,2.22
2022-08-16T08:23:00.619Z,2.30
2022-08-16T08:25:53.680Z,2.35
2022-08-16T08:28:20.069Z,2.35
2022-08-16T08:30:51.889Z,2.33
2022-08-16T08:33:24.941Z,2.75
2022-08-16T08:36:00.697Z,2.10
2022-08-16T08:38:43.972Z,1.88
2022-08-16T08:41:18.554Z,1.90
2022-08-16T08:43:50.480Z,2.28
2022-08-16T08:46:21.736Z,2.25
2022-08-16T08:48:59.519Z,1.80
2022-08-16T08:51:35.624Z,2.50
2022-08-16T08:54:06.847Z,2.10
2022-08-16T08:56:35.463Z,2.38
2022-08-16T08:59:12.724Z,2.83
2022-08-16T09:01:42.949Z,2.45
2022-08-16T09:04:24.097Z,2.38
2022-08-16T09:06:54.211Z,2.72
2022-08-16T09:09:24.421Z,2.33
2022-08-16T09:12:00.286Z,1.92
2022-08-16T09:14:35.182Z,1.92
2022-08-16T09:17:14.247Z,2.08
2022-08-16T09:19:55.292Z,2.15
2022-08-16T09:22:24.917Z,1.88
2022-08-16T09:24:54.176Z,2.53
2022-08-16T09:27:57.084Z,2.20
2022-08-16T09:30:34.152Z,2.30
2022-08-16T09:33:06.722Z,2.63
2022-08-16T09:35:37.526Z,2.20
2022-08-16T09:38:08.366Z,2.28
2022-08-16T09:40:43.341Z,1.55
2022-08-16T09:43:46.524Z,2.70
2022-08-16T09:46:00.722Z,2.53
2022-08-16T09:48:36.833Z,2.60
2022-08-16T09:51:13.940Z,2.08
2022-08-16T09:53:41.833Z,2.47
2022-08-16T09:56:20.143Z,2.33
2022-08-16T09:59:05.652Z,1.95
2022-08-16T10:01:36.986Z,2.58
2022-08-16T10:04:29.655Z,1.80
2022-08-16T10:09:25.689Z,1.83
2022-08-16T10:12:31.643Z,2.58
2022-08-16T10:15:00.976Z,1.88
2022-08-16T10:17:29.703Z,2.72
2022-08-16T10:19:57.458Z,3.35
2022-08-16T10:22:24.801Z,2.05
2022-08-16T10:24:55.793Z,2.10
2022-08-16T10:27:29.674Z,2.72
2022-08-16T10:30:26.094Z,2.92
2022-08-16T10:32:56.154Z,3.08
2022-08-16T10:35:23.992Z,2.83
2022-08-16T10:38:00.764Z,2.70
2022-08-16T10:40:30.298Z,2.58
2022-08-16T10:43:00.588Z,2.60
2022-08-16T10:45:37.052Z,2.90
2022-08-16T10:48:27.389Z,2.05
2022-08-16T10:50:59.028Z,2.95
2022-08-16T10:53:32.736Z,2.28
2022-08-16T10:56:02.836Z,2.03
2022-08-16T10:58:34.038Z,2.70
2022-08-16T11:01:40.075Z,2.97
2022-08-16T11:03:54.574Z,2.65
2022-08-16T11:06:26.834Z,2.35
2022-08-16T11:14:32.837Z,2.42
2022-08-16T11:17:09.582Z,2.50
2022-08-16T11:22:42.226Z,2.08
2022-08-16T11:26:07.702Z,2.72
2022-08-16T11:28:06.777Z,2.17
2022-08-16T11:30:39.033Z,3.08
2022-08-16T11:36:22.215Z,2.47
2022-08-16T11:38:55.351Z,3.17
2022-08-16T11:41:13.414Z,2.72
2022-08-16T11:43:42.540Z,3.15
2022-08-16T11:46:44.319Z,2.85
2022-08-16T11:49:00.588Z,2.60
2022-08-16T11:51:28.127Z,2.22
2022-08-16T11:53:55.870Z,2.33
2022-08-16T11:56:51.557Z,1.88
2022-08-16T11:59:12.806Z,2.50
2022-08-16T12:01:55.399Z,2.13
2022-08-16T12:04:27.285Z,1.75
2022-08-16T12:06:55.187Z,2.22
2022-08-16T12:09:23.072Z,2.42
2022-08-16T12:11:53.305Z,3.22
2022-08-16T12:14:22.905Z,3.92
2022-08-16T12:16:55.668Z,2.53
2022-08-16T12:19:33.620Z,2.88
2022-08-16T12:22:05.348Z,2.60
2022-08-16T12:24:47.907Z,2.10
2022-08-16T12:27:20.238Z,2.63
2022-08-16T12:29:52.114Z,2.10
2022-08-16T12:32:38.310Z,1.83
2022-08-16T12:35:10.903Z,2.47
2022-08-16T12:37:38.954Z,2.30
2022-08-16T12:40:22.512Z,2.97
2022-08-16T12:42:53.429Z,2.33
2022-08-16T12:45:22.122Z,3.22
2022-08-16T12:48:32.833Z,3.53
2022-08-16T12:50:57.020Z,1.98
2022-08-16T12:53:24.838Z,2.00
2022-08-16T12:55:59.365Z,3.08
2022-08-16T12:58:50.012Z,3.13
2022-08-16T13:01:18.799Z,3.03
2022-08-16T13:03:46.917Z,2.80
2022-08-16T13:06:20.047Z,2.67
2022-08-16T13:08:48.602Z,3.03
2022-08-16T13:11:19.174Z,3.05
2022-08-16T13:13:59.300Z,2.72
2022-08-16T13:16:27.397Z,2.58
2022-08-16T13:18:57.777Z,3.30
2022-08-16T13:21:25.294Z,2.78
2022-08-16T13:23:55.451Z,2.42
2022-08-16T13:26:26.942Z,2.58
2022-08-16T13:28:54.705Z,2.30
2022-08-16T13:31:24.042Z,2.25
2022-08-16T13:33:54.607Z,2.72
2022-08-16T13:36:48.002Z,2.40
2022-08-16T13:39:13.812Z,2.58
2022-08-16T13:41:41.982Z,2.78
2022-08-16T13:44:12.527Z,2.47
2022-08-16T13:46:43.320Z,2.20
2022-08-16T13:49:11.499Z,2.20
2022-08-16T13:51:40.398Z,2.05
2022-08-16T13:54:08.097Z,2.10
2022-08-16T13:56:39.484Z,2.70
2022-08-16T13:59:20.643Z,1.70
2022-08-16T14:01:59.603Z,2.88
2022-08-16T14:04:29.158Z,2.22
2022-08-16T14:06:57.828Z,2.45
2022-08-16T14:09:27.316Z,1.85
2022-08-16T14:11:57.442Z,2.33
2022-08-16T14:14:28.803Z,2.75
2022-08-16T14:16:58.282Z,2.40
2022-08-16T14:19:26.515Z,2.28
2022-08-16T14:22:14.842Z,2.72
2022-08-16T14:24:47.414Z,1.60
2022-08-16T14:27:16.960Z,1.70
2022-08-16T14:29:44.803Z,1.42
2022-08-16T14:32:13.141Z,1.92
2022-08-16T14:34:55.894Z,1.52
2022-08-16T14:37:23.477Z,1.65
2022-08-16T14:39:51.558Z,1.67
2022-08-16T14:42:21.782Z,1.80
2022-08-16T14:44:50.049Z,1.42
2022-08-16T14:47:18.077Z,2.03
2022-08-16T14:49:45.749Z,1.92
2022-08-16T14:52:20.460Z,1.75
2022-08-16T14:55:06.021Z,1.52
2022-08-16T14:57:34.213Z,1.20
2022-08-16T15:00:08.208Z,1.45
2022-08-16T15:02:39.163Z,1.30
2022-08-16T15:05:09.506Z,1.80
2022-08-16T15:07:47.348Z,1.55
2022-08-16T15:10:23.906Z,1.30
2022-08-16T15:12:54.814Z,1.80
2022-08-16T15:15:25.289Z,1.98
2022-08-16T15:17:53.975Z,1.23
2022-08-16T15:20:23.087Z,2.22
2022-08-16T15:22:54.837Z,1.00
2022-08-16T15:25:30.982Z,3.05
2022-08-16T15:28:05.372Z,1.83
2022-08-16T15:30:47.790Z,1.95
2022-08-16T15:33:27.384Z,1.17
2022-08-16T15:38:43.585Z,1.40
2022-08-16T15:41:29.594Z,0.93
2022-08-16T15:44:05.255Z,2.08
2022-08-16T15:46:57.135Z,1.50
2022-08-16T15:49:37.497Z,1.60
2022-08-16T15:52:20.710Z,2.00
2022-08-16T15:54:55.459Z,1.52
2022-08-16T15:57:25.717Z,1.63
2022-08-16T15:59:55.908Z,1.73
2022-08-16T16:02:31.014Z,1.30
2022-08-16T16:07:28.081Z,1.60
2022-08-16T16:09:58.791Z,1.08
2022-08-16T16:15:17.373Z,1.20
2022-08-16T16:17:50.886Z,1.33
2022-08-16T16:20:21.027Z,1.05
2022-08-16T16:22:50.965Z,1.55
2022-08-16T16:25:19.364Z,1.17
2022-08-16T16:27:55.505Z,1.25
2022-08-16T16:30:37.139Z,1.70
2022-08-16T16:33:20.815Z,1.40
2022-08-16T16:35:55.182Z,1.17
2022-08-16T16:38:25.042Z,1.05
2022-08-16T16:40:54.719Z,1.33
2022-08-16T16:43:25.940Z,1.58
2022-08-16T16:45:59.000Z,1.25
2022-08-16T16:48:29.862Z,1.70
2022-08-16T16:51:09.106Z,2.83
2022-08-16T16:53:38.235Z,1.10
2022-08-16T16:56:08.797Z,0.90
2022-08-16T16:58:56.489Z,1.10
2022-08-16T17:01:41.299Z,1.67
2022-08-16T17:04:19.706Z,0.82
2022-08-16T17:06:53.214Z,1.38
2022-08-16T17:09:23.612Z,0.93
2022-08-16T17:11:53.113Z,1.25
2022-08-16T17:14:33.161Z,1.13
2022-08-16T17:17:04.722Z,1.90
2022-08-16T17:19:32.312Z,2.35
2022-08-16T17:22:00.359Z,1.00
2022-08-16T17:24:39.313Z,1.83
2022-08-16T17:27:10.119Z,2.97
2022-08-16T17:29:42.826Z,1.23
2022-08-16T17:35:08.612Z,1.02
2022-08-16T17:37:51.228Z,0.95
2022-08-16T17:39:27.122Z,1.27
2022-08-16T17:40:32.024Z,1.00
2022-08-16T17:43:11.193Z,1.30
2022-08-16T17:45:39.944Z,1.20
2022-08-16T17:48:08.063Z,0.90
2022-08-16T17:50:35.893Z,1.17
2022-08-16T17:53:04.823Z,0.90
2022-08-16T17:55:34.988Z,1.13
2022-08-16T17:58:19.813Z,1.25
2022-08-16T18:00:53.456Z,0.85
2022-08-16T18:04:02.428Z,1.58
2022-08-16T18:06:13.784Z,1.55
2022-08-16T18:08:42.635Z,1.60
2022-08-16T18:11:10.896Z,1.75
2022-08-16T18:13:44.077Z,0.95
2022-08-16T18:16:17.118Z,1.20
2022-08-16T18:18:45.040Z,1.00
2022-08-16T18:21:31.742Z,1.15
2022-08-16T18:23:59.664Z,1.27
2022-08-16T18:26:27.280Z,1.58
2022-08-16T18:28:54.885Z,1.83
2022-08-16T18:31:22.478Z,1.58
2022-08-16T18:33:54.730Z,1.33
2022-08-16T18:36:24.193Z,1.58
2022-08-16T18:38:52.507Z,1.20
2022-08-16T18:41:20.625Z,1.20
2022-08-16T18:44:24.177Z,1.23
2022-08-16T18:46:35.720Z,0.98
2022-08-16T18:49:04.385Z,1.33
2022-08-16T18:51:33.178Z,1.40
2022-08-16T18:54:00.996Z,1.52
2022-08-16T18:56:54.346Z,1.17
2022-08-16T18:59:16.075Z,1.05
2022-08-16T19:01:43.643Z,1.20
2022-08-16T19:04:48.157Z,1.35
2022-08-16T19:07:00.829Z,0.85
2022-08-16T19:09:28.499Z,2.67
2022-08-16T19:11:56.211Z,1.00
2022-08-16T19:14:30.652Z,0.80
2022-08-16T19:16:58.187Z,1.02
2022-08-16T19:19:25.734Z,1.58
2022-08-16T19:21:54.919Z,1.10
2022-08-16T19:24:29.080Z,2.30
2022-08-16T19:26:57.229Z,1.00
2022-08-16T19:29:25.170Z,2.03
2022-08-16T19:31:52.862Z,1.83
2022-08-16T19:34:20.724Z,1.25
2022-08-16T19:36:48.726Z,1.40
2022-08-16T19:39:16.894Z,1.60
2022-08-16T19:41:45.871Z,1.48
2022-08-16T19:44:15.120Z,2.00
2022-08-16T19:46:45.521Z,1.65
2022-08-16T19:49:15.795Z,1.52
2022-08-16T19:51:44.416Z,0.93
2022-08-16T19:54:12.065Z,1.40
2022-08-16T19:56:39.915Z,1.45
2022-08-16T19:59:40.445Z,1.25
2022-08-16T20:01:55.133Z,1.10
2022-08-16T20:04:23.397Z,1.35
2022-08-16T20:06:52.597Z,0.90
2022-08-16T20:09:20.706Z,1.42
2022-08-16T20:11:49.362Z,1.27
2022-08-16T20:14:24.100Z,1.58
2022-08-16T20:16:52.766Z,1.30
2022-08-16T20:19:20.401Z,1.48
2022-08-16T20:21:48.629Z,1.45
2022-08-16T20:24:33.520Z,1.55
2022-08-16T20:29:37.700Z,2.65
2022-08-16T20:32:05.942Z,2.40
2022-08-16T20:34:33.612Z,2.33
2022-08-16T20:37:02.207Z,2.45
2022-08-16T20:39:29.776Z,3.20
2022-08-16T20:41:58.175Z,1.92
2022-08-16T20:44:28.156Z,2.42
2022-08-16T20:46:55.702Z,2.58
2022-08-16T20:49:23.345Z,2.75
2022-08-16T20:51:57.282Z,2.40
2022-08-16T20:54:26.855Z,2.67
2022-08-16T20:56:54.726Z,2.55
2022-08-16T20:59:26.982Z,1.80
2022-08-16T21:01:54.864Z,2.00
2022-08-16T21:04:23.560Z,1.67
2022-08-16T21:06:53.856Z,1.50
2022-08-16T21:09:23.597Z,1.92
2022-08-16T21:11:53.807Z,1.55
2022-08-16T21:14:21.514Z,1.38
2022-08-16T21:16:49.957Z,1.88
2022-08-16T21:19:17.663Z,1.65
2022-08-16T21:21:45.250Z,1.50
2022-08-16T21:24:13.057Z,2.25
2022-08-16T21:26:40.582Z,2.90
2022-08-16T21:29:17.559Z,2.65
2022-08-16T21:31:46.597Z,2.45
2022-08-16T21:34:14.326Z,2.03
2022-08-16T21:36:45.212Z,2.13
2022-08-16T21:39:13.046Z,2.95
2022-08-16T21:41:40.584Z,2.17
2022-08-16T21:44:08.317Z,1.95
2022-08-16T21:46:37.094Z,2.83
2022-08-16T21:49:06.600Z,2.33
2022-08-16T21:51:36.241Z,2.03
2022-08-16T21:54:03.931Z,2.13
2022-08-16T21:56:34.365Z,2.45
2022-08-16T21:59:02.103Z,3.10
2022-08-16T22:01:30.285Z,2.30
2022-08-16T22:04:35.556Z,2.22
2022-08-16T22:06:45.608Z,2.13
2022-08-16T22:09:16.407Z,2.72
2022-08-16T22:11:44.526Z,2.25
2022-08-16T22:14:13.300Z,2.67
2022-08-16T22:16:42.441Z,2.17
2022-08-16T22:19:10.145Z,1.95
2022-08-16T22:21:38.352Z,2.90
2022-08-16T22:24:06.289Z,2.58
2022-08-16T22:26:36.065Z,3.13
2022-08-16T22:29:06.757Z,2.25
2022-08-16T22:31:35.143Z,2.83
2022-08-16T22:34:03.359Z,2.97
2022-08-16T22:36:32.040Z,2.65
2022-08-16T22:39:02.902Z,2.60
2022-08-16T22:41:32.516Z,2.85
2022-08-16T22:44:03.115Z,2.30
2022-08-16T22:46:31.195Z,2.67
2022-08-16T22:48:58.925Z,2.50
2022-08-16T22:51:27.611Z,2.65
2022-08-16T22:53:55.905Z,2.88
2022-08-16T22:56:24.035Z,2.75
2022-08-16T22:58:51.697Z,2.60
2022-08-16T23:01:20.218Z,2.60
2022-08-16T23:03:48.380Z,2.75
2022-08-16T23:06:16.329Z,2.65
2022-08-16T23:08:44.697Z,3.13
2022-08-16T23:11:13.397Z,2.55
2022-08-16T23:13:49.964Z,2.58
2022-08-16T23:16:33.717Z,2.55
2022-08-16T23:19:07.116Z,2.33
2022-08-16T23:21:35.903Z,2.42
2022-08-16T23:24:03.655Z,3.08
2022-08-16T23:26:43.814Z,2.40
2022-08-16T23:29:24.634Z,2.15
2022-08-16T23:31:57.908Z,2.58
2022-08-16T23:34:26.070Z,2.60
2022-08-16T23:36:53.817Z,2.50
2022-08-16T23:39:21.539Z,1.63
2022-08-16T23:41:53.046Z,1.95
2022-08-16T23:44:55.047Z,2.20
2022-08-16T23:47:08.383Z,1.95
2022-08-16T23:49:56.550Z,2.92
2022-08-16T23:52:42.189Z,2.45
2022-08-16T23:55:11.727Z,2.33
2022-08-16T23:57:39.497Z,2.25
